Pagrindinis puslapis
METAR-TAF:

METAR-TAF

Oro uostai :

Letisija, Kolumbija

platuma: 04-10S, ilguma: 069-57W, Aukštis: 84 m

Dabartinis oras

Ataskaita buvo paskelbta 34 minutes, ne 03:00 UTC
Ramus vėjas
Temperatūra 26°C
Drėgmė 100%
Slėgis 1010 hPa
Matomumas 10 km arba daugiau
Mažai debesys ne aukštis 1700 ft

METAR: SKLT 170300Z 00000KT 9999 FEW017 26/26 A2983

Laikas: 22:34 (03:34 UTC)

Prognozė

Ataskaita buvo paskelbta 5 valandos ir 4 minutes, ne 22:30 UTC
Prognozė galioja nuo 17 metu 00 UTC su 17 metu 24 UTC
Vėjas kt iš Šiaurės
Matomumas 10 km arba daugiau
Išsisklaidę debesys ne aukštis 2000 ft
Išsisklaidę debesys ne aukštis 10000 ft
Tapsmas
nuo 17 metu 15 UTC su 17 metu 17 UTC
Vėjas 7 kt iš Vakarų/Pietvakarių

TAF: SKLT 162230Z 1700/1724 00000KT 9999 SCT020 SCT100 BECMG 1715/1717 25007KT TX32/1718Z TN23/1711Z

Orai ataskaitas ir orų prognozės (METAR, TAF).

turimą stotys yra geltonos ir raudonos taškus žemėlapyje.

Perkelti pele per norėdami pamatyti stoties vardą.

Tada spustelėkite, norėdami matyti oro stebėjimo ir prognozės.

Norėdami pakeisti žemėlapį: spustelėkite ant žalios mygtukų su juodo kryžiaus žemyn,; žalią mygtuką su brūkšneliu, jei norite nutolinti; arba žalių rodyklių gretimoms žemėlapius.


METAR-TAF: